Time;durP1;ratioP1;P1;durP2;ratioP2;P2;SDS_P1;SDS_P2;PMS_P1;PMS_P2;Temp;Humidity;BMP_temperature;BMP_pressure;BME280_temperature;BME280_humidity;BME280_pressure;Samples;Min_cycle;Max_cycle;Signal;HPM_P1;HPM_P2
2022/09/01 00:01:40;;;;;;;0.50;0.50;;;;;;;10.44;100.00;102538.47;6191432;23;20120;-81
2022/09/01 00:04:07;;;;;;;0.93;0.65;;;;;;;10.34;100.00;102542.09;6192848;23;20020;-80
2022/09/01 00:06:33;;;;;;;1.77;0.90;;;;;;;10.28;100.00;102544.56;6192796;23;20088;-80
2022/09/01 00:09:03;;;;;;;0.65;0.50;;;;;;;10.23;100.00;102542.31;6168740;23;20075;-81
2022/09/01 00:11:30;;;;;;;3.63;0.80;;;;;;;10.25;100.00;102539.47;6193772;23;20012;-81
2022/09/01 00:13:56;;;;;;;1.15;0.73;;;;;;;10.16;100.00;102535.00;6193618;23;20002;-81
2022/09/01 00:16:23;;;;;;;1.05;0.60;;;;;;;10.19;100.00;102540.91;6193149;23;20005;-81
2022/09/01 00:18:52;;;;;;;1.63;0.60;;;;;;;10.15;100.00;102538.69;6193828;23;20013;-81
2022/09/01 00:21:21;;;;;;;3.53;0.80;;;;;;;10.03;100.00;102530.00;6196811;23;20088;-81
2022/09/01 00:23:46;;;;;;;1.63;0.60;;;;;;;9.82;100.00;102501.56;6202135;23;19997;-82
2022/09/01 00:26:12;;;;;;;0.90;0.70;;;;;;;9.85;100.00;102501.25;6212080;23;20024;-82
2022/09/01 00:28:38;;;;;;;0.80;0.70;;;;;;;10.02;100.00;102531.00;6213139;23;20009;-81
2022/09/01 00:31:05;;;;;;;0.82;0.55;;;;;;;9.62;100.00;102462.38;6213258;23;20001;-81
2022/09/01 00:33:31;;;;;;;1.83;0.70;;;;;;;9.95;100.00;102520.00;6187867;23;20011;-82
2022/09/01 00:35:56;;;;;;;1.65;0.70;;;;;;;9.98;100.00;102525.09;6187861;23;20001;-82
2022/09/01 00:38:21;;;;;;;1.13;0.60;;;;;;;9.93;100.00;102527.38;6208017;23;20023;-81
2022/09/01 00:40:48;;;;;;;2.47;0.70;;;;;;;9.92;100.00;102514.09;6202868;23;20019;-81
2022/09/01 00:43:19;;;;;;;1.10;0.55;;;;;;;9.67;100.00;102484.28;6175807;23;20048;-80
2022/09/01 00:45:45;;;;;;;1.58;0.60;;;;;;;9.86;100.00;102523.59;6202641;23;19985;-81
2022/09/01 00:48:10;;;;;;;1.45;0.70;;;;;;;9.79;100.00;102522.53;6204331;23;20008;-80
2022/09/01 00:50:36;;;;;;;1.23;0.70;;;;;;;9.61;100.00;102501.00;6203924;23;20009;-81
2022/09/01 00:53:05;;;;;;;1.50;0.70;;;;;;;9.68;100.00;102523.59;6201308;23;20001;-81
2022/09/01 00:55:33;;;;;;;1.05;0.70;;;;;;;9.54;100.00;102518.75;6195976;23;20021;-80
2022/09/01 00:58:02;;;;;;;1.48;0.60;;;;;;;9.61;100.00;102520.66;6194556;23;20005;-81
2022/09/01 01:00:30;;;;;;;0.88;0.60;;;;;;;9.58;100.00;102517.44;6193592;23;20028;-81
2022/09/01 01:02:56;;;;;;;2.38;0.60;;;;;;;9.55;100.00;102520.44;6193804;23;20032;-81
2022/09/01 01:05:23;;;;;;;1.83;0.75;;;;;;;9.47;100.00;102523.00;6170997;23;20001;-81
2022/09/01 01:07:49;;;;;;;2.20;0.90;;;;;;;9.55;100.00;102521.25;6199736;23;20013;-81
2022/09/01 01:10:17;;;;;;;3.65;0.93;;;;;;;9.56;100.00;102522.09;6204628;23;20011;-81
2022/09/01 01:12:43;;;;;;;0.95;0.60;;;;;;;9.52;100.00;102520.72;6209385;23;20065;-81
2022/09/01 01:15:13;;;;;;;2.28;0.80;;;;;;;9.43;100.00;102505.50;6205115;23;20001;-82
2022/09/01 01:17:39;;;;;;;1.45;0.60;;;;;;;9.39;100.00;102516.53;6178206;23;20009;-82
2022/09/01 01:23:24;;;;;;;4.97;0.70;;;;;;;9.36;100.00;102522.22;6201779;23;20044;-81
2022/09/01 01:25:51;;;;;;;2.65;0.75;;;;;;;9.34;100.00;102523.38;6160174;23;20001;-82
2022/09/01 01:28:26;;;;;;;0.95;0.70;;;;;;;9.27;100.00;102503.44;6201310;23;20005;-82
2022/09/01 01:31:00;;;;;;;1.15;0.70;;;;;;;9.25;100.00;102500.94;6176325;23;20076;-82
2022/09/01 01:33:33;;;;;;;0.70;0.70;;;;;;;9.24;100.00;102507.31;6174605;23;20005;-81
2022/09/01 01:36:00;;;;;;;1.05;0.60;;;;;;;9.16;100.00;102483.84;6176130;23;20015;-81
2022/09/01 01:38:26;;;;;;;2.90;0.70;;;;;;;9.22;100.00;102497.69;6200778;23;20060;-83
2022/09/01 01:40:52;;;;;;;1.05;0.80;;;;;;;9.31;100.00;102518.31;6151052;23;20013;-81
2022/09/01 01:43:21;;;;;;;1.98;0.60;;;;;;;9.29;100.00;102512.22;6176620;23;20009;-82
2022/09/01 01:45:50;;;;;;;1.23;0.70;;;;;;;9.20;100.00;102500.50;6153108;23;20009;-82
2022/09/01 01:48:23;;;;;;;1.67;0.60;;;;;;;9.27;100.00;102511.50;6176603;23;20005;-81
2022/09/01 01:50:51;;;;;;;1.38;0.70;;;;;;;9.22;100.00;102511.13;6176776;23;20009;-82
2022/09/01 01:53:18;;;;;;;1.73;0.90;;;;;;;9.08;100.00;102493.66;6176790;23;20028;-82
2022/09/01 01:55:44;;;;;;;0.90;0.70;;;;;;;9.18;100.00;102503.34;6177435;23;20005;-82
2022/09/01 01:58:10;;;;;;;2.70;0.80;;;;;;;9.04;100.00;102484.19;6176491;23;20013;-81
2022/09/01 02:00:37;;;;;;;1.20;0.80;;;;;;;9.12;100.00;102517.38;6207109;23;20056;-82
2022/09/01 02:03:04;;;;;;;1.20;0.65;;;;;;;8.96;100.00;102490.31;6182080;23;20015;-82
2022/09/01 02:05:34;;;;;;;0.85;0.68;;;;;;;8.89;100.00;102491.88;6181918;23;19993;-81
2022/09/01 02:08:08;;;;;;;0.98;0.70;;;;;;;8.88;100.00;102493.72;6152852;23;20017;-82
2022/09/01 02:10:39;;;;;;;2.13;0.95;;;;;;;8.78;100.00;102476.81;6174691;23;20005;-81
2022/09/01 02:13:10;;;;;;;3.53;0.70;;;;;;;8.87;100.00;102494.72;6200953;23;20021;-82
2022/09/01 02:15:43;;;;;;;1.45;0.80;;;;;;;8.73;100.00;102470.19;6176453;23;20009;-82
2022/09/01 02:18:12;;;;;;;3.30;0.70;;;;;;;8.97;100.00;102500.03;6175648;23;20064;-82
2022/09/01 02:20:39;;;;;;;0.60;0.47;;;;;;;8.93;100.00;102502.19;6205155;23;20044;-81
2022/09/01 02:23:09;;;;;;;2.47;0.70;;;;;;;8.79;100.00;102491.91;6131214;23;20009;-82
2022/09/01 02:25:37;;;;;;;1.15;0.90;;;;;;;8.84;100.00;102499.50;6179522;23;20009;-82
2022/09/01 02:28:03;;;;;;;1.45;0.70;;;;;;;8.77;100.00;102498.41;6179430;23;20246;-81
2022/09/01 02:30:31;;;;;;;1.10;0.60;;;;;;;8.76;100.00;102492.22;6203498;23;20129;-81
2022/09/01 02:33:01;;;;;;;1.65;0.80;;;;;;;8.72;100.00;102496.19;6204415;23;20001;-81
2022/09/01 02:35:35;;;;;;;0.77;0.60;;;;;;;8.69;100.00;102493.78;6153463;23;20019;-83
2022/09/01 02:38:01;;;;;;;2.17;0.68;;;;;;;8.61;100.00;102493.66;6205368;23;20009;-81
2022/09/01 02:40:30;;;;;;;1.40;0.73;;;;;;;8.54;100.00;102481.81;6179126;23;20016;-82
2022/09/01 02:42:58;;;;;;;1.15;0.57;;;;;;;8.55;100.00;102475.47;6203887;23;20001;-81
2022/09/01 02:45:23;;;;;;;0.63;0.60;;;;;;;8.67;100.00;102501.97;6178885;23;20351;-82
2022/09/01 02:47:50;;;;;;;1.15;0.65;;;;;;;8.67;100.00;102503.81;6179475;23;20074;-81
2022/09/01 02:50:18;;;;;;;1.67;0.60;;;;;;;8.67;100.00;102498.44;6152911;23;20005;-81
2022/09/01 02:52:47;;;;;;;1.15;0.73;;;;;;;8.58;100.00;102485.91;6204756;23;20423;-81
2022/09/01 02:55:13;;;;;;;2.00;0.70;;;;;;;8.51;100.00;102474.91;6203066;23;20005;-81
2022/09/01 02:57:39;;;;;;;0.65;0.65;;;;;;;8.63;100.00;102492.53;6204107;23;20023;-81
2022/09/01 03:00:19;;;;;;;2.63;0.70;;;;;;;8.68;100.00;102489.41;6155132;23;20009;-80
2022/09/01 03:02:47;;;;;;;1.27;0.70;;;;;;;8.59;100.00;102491.13;6178506;23;20005;-81
2022/09/01 03:05:15;;;;;;;0.90;0.65;;;;;;;8.58;100.00;102469.81;6178767;23;20011;-81
2022/09/01 03:07:41;;;;;;;1.38;0.82;;;;;;;8.54;100.00;102460.34;6179085;23;20013;-81
2022/09/01 03:10:08;;;;;;;1.10;0.70;;;;;;;8.68;100.00;102489.41;6205380;23;20011;-81
2022/09/01 03:12:34;;;;;;;0.90;0.70;;;;;;;8.65;100.00;102479.81;6153814;23;20005;-81
2022/09/01 03:15:00;;;;;;;1.35;0.60;;;;;;;8.63;100.00;102491.69;6177833;23;20016;-82
2022/09/01 03:17:25;;;;;;;1.35;0.90;;;;;;;8.56;100.00;102485.19;6180469;23;20005;-82
2022/09/01 03:19:51;;;;;;;1.15;0.80;;;;;;;8.39;100.00;102478.75;6204266;23;20084;-81
2022/09/01 03:22:16;;;;;;;1.55;0.80;;;;;;;8.38;100.00;102466.34;6179839;23;20016;-81
2022/09/01 03:24:42;;;;;;;1.67;0.70;;;;;;;8.41;100.00;102480.31;6205115;23;20013;-81
2022/09/01 03:27:10;;;;;;;2.35;0.80;;;;;;;8.33;100.00;102476.59;6178757;23;20009;-82
2022/09/01 03:29:37;;;;;;;1.15;0.75;;;;;;;8.37;100.00;102478.00;6178075;23;20009;-82
2022/09/01 03:32:03;;;;;;;3.08;0.60;;;;;;;8.22;100.00;102456.16;6153633;23;20021;-81
2022/09/01 03:34:33;;;;;;;2.28;0.80;;;;;;;7.76;100.00;102401.44;6178736;23;20043;-81
2022/09/01 03:36:58;;;;;;;1.00;0.63;;;;;;;8.05;100.00;102436.28;6204994;23;20020;-81
2022/09/01 03:39:24;;;;;;;0.98;0.70;;;;;;;8.20;100.00;102458.97;6177963;23;20001;-81
2022/09/01 03:41:49;;;;;;;0.90;0.57;;;;;;;7.82;100.00;102411.59;6179242;23;20005;-81
2022/09/01 03:44:15;;;;;;;1.27;0.80;;;;;;;8.16;100.00;102462.91;6178258;23;20016;-82
2022/09/01 03:46:42;;;;;;;1.23;0.70;;;;;;;8.18;100.00;102476.19;6179024;23;20043;-82
2022/09/01 03:49:11;;;;;;;0.95;0.70;;;;;;;8.21;100.00;102475.88;6205112;23;20004;-80
2022/09/01 03:51:37;;;;;;;1.63;0.80;;;;;;;7.89;100.00;102427.97;6180033;23;20009;-82
2022/09/01 03:54:03;;;;;;;2.85;0.77;;;;;;;7.98;100.00;102436.00;6204243;23;20024;-81
2022/09/01 03:56:29;;;;;;;1.33;0.80;;;;;;;8.12;100.00;102464.19;6203310;23;20060;-81
2022/09/01 03:58:58;;;;;;;1.23;0.70;;;;;;;7.83;100.00;102407.91;6152418;23;20307;-81
2022/09/01 04:01:26;;;;;;;1.00;0.60;;;;;;;8.17;100.00;102464.59;6176093;23;20048;-82
2022/09/01 04:03:51;;;;;;;1.48;0.80;;;;;;;8.20;100.00;102463.47;6178155;23;20005;-81
2022/09/01 04:06:22;;;;;;;1.73;0.90;;;;;;;8.16;100.00;102432.59;6153260;23;20020;-82
2022/09/01 04:08:48;;;;;;;1.17;0.82;;;;;;;8.41;100.00;102469.56;6176793;23;20009;-82
2022/09/01 04:11:17;;;;;;;2.05;0.90;;;;;;;8.44;100.00;102471.09;6202240;23;20041;-82
2022/09/01 04:13:43;;;;;;;4.90;0.90;;;;;;;8.47;100.00;102471.66;6201272;23;20001;-81
2022/09/01 04:19:14;;;;;;;1.17;0.88;;;;;;;8.41;100.00;102455.28;6201937;23;20020;-81
2022/09/01 04:21:41;;;;;;;;;;;;;;;8.40;100.00;102475.91;6196135;23;20036;-82
2022/09/01 04:24:08;;;;;;;1.27;0.82;;;;;;;8.30;100.00;102471.50;6201351;23;19915;-81
2022/09/01 04:26:33;;;;;;;1.45;0.98;;;;;;;8.28;100.00;102443.97;6177578;23;20008;-81
2022/09/01 04:29:01;;;;;;;2.58;0.82;;;;;;;8.91;100.00;102458.53;6202721;23;20004;-81
2022/09/01 04:31:26;;;;;;;1.30;0.82;;;;;;;9.34;100.00;102445.47;6204274;23;20009;-82
2022/09/01 04:33:51;;;;;;;1.13;0.80;;;;;;;9.94;100.00;102479.84;6204050;23;20016;-81
2022/09/01 04:36:22;;;;;;;1.35;0.82;;;;;;;10.25;100.00;102477.59;6177541;23;20075;-81
2022/09/01 04:38:53;;;;;;;1.27;0.80;;;;;;;10.73;100.00;102473.59;6202908;23;20015;-81
2022/09/01 04:41:20;;;;;;;1.48;0.88;;;;;;;11.10;100.00;102470.56;6203726;23;20016;-82
2022/09/01 04:43:47;;;;;;;1.80;0.80;;;;;;;11.54;100.00;102483.84;6206483;23;20040;-82
2022/09/01 04:46:19;;;;;;;1.67;1.00;;;;;;;11.86;97.99;102474.19;6208004;23;20013;-82
2022/09/01 04:48:46;;;;;;;1.42;0.90;;;;;;;12.24;95.71;102483.47;6158272;23;20312;-80
2022/09/01 04:51:14;;;;;;;1.88;0.70;;;;;;;12.59;93.39;102482.28;6209734;23;20004;-82
2022/09/01 04:53:42;;;;;;;1.33;0.82;;;;;;;12.87;91.53;102479.16;6206978;23;20009;-82
2022/09/01 04:56:11;;;;;;;1.77;0.80;;;;;;;13.11;90.00;102476.41;6206694;23;20447;-82
2022/09/01 04:58:37;;;;;;;1.95;0.70;;;;;;;13.43;87.61;102479.13;6209209;23;20032;-82
2022/09/01 05:01:16;;;;;;;1.52;0.80;;;;;;;13.80;86.31;102476.53;6208228;23;20009;-82
2022/09/01 05:03:42;;;;;;;1.42;0.70;;;;;;;14.02;83.67;102447.78;6205339;23;20005;-81
2022/09/01 05:06:16;;;;;;;3.90;0.65;;;;;;;14.56;82.78;102473.91;6204244;23;20013;-81
2022/09/01 05:08:43;;;;;;;1.65;0.82;;;;;;;14.61;80.79;102440.84;6205228;23;20008;-82
2022/09/01 05:11:10;;;;;;;1.60;0.65;;;;;;;15.00;79.92;102463.09;6179914;23;20005;-81
2022/09/01 05:13:38;;;;;;;1.30;0.70;;;;;;;15.00;79.00;102408.03;6179798;23;20013;-82
2022/09/01 05:16:11;;;;;;;1.77;0.70;;;;;;;15.63;77.74;102457.16;6174390;23;20013;-81
2022/09/01 05:18:39;;;;;;;1.70;0.50;;;;;;;15.96;76.03;102471.13;6197327;23;20344;-81
2022/09/01 05:21:08;;;;;;;1.50;0.80;;;;;;;16.24;74.69;102471.16;6202075;23;20064;-82
2022/09/01 05:23:35;;;;;;;1.15;0.70;;;;;;;16.50;73.84;102466.97;6204578;23;20005;-82
2022/09/01 05:26:05;;;;;;;1.35;0.70;;;;;;;16.64;73.25;102468.75;6208822;23;20059;-81
2022/09/01 05:28:30;;;;;;;1.33;0.80;;;;;;;16.74;72.79;102469.22;6205938;23;20013;-82
2022/09/01 05:30:59;;;;;;;1.98;0.80;;;;;;;16.95;72.10;102454.72;6183282;23;20036;-81
2022/09/01 05:33:25;;;;;;;1.67;0.70;;;;;;;17.23;70.93;102478.31;6207547;23;20048;-82
2022/09/01 05:36:03;;;;;;;2.17;1.00;;;;;;;16.07;76.16;102476.03;6181648;23;20319;-82
2022/09/01 05:38:30;;;;;;;0.80;0.80;;;;;;;14.75;85.09;102462.53;6182459;23;20005;-81
2022/09/01 05:41:02;;;;;;;1.33;1.00;;;;;;;14.04;89.56;102434.94;6207478;23;20009;-83
2022/09/01 05:43:29;;;;;;;1.40;0.90;;;;;;;13.92;92.59;102440.97;6206064;23;20069;-84
2022/09/01 05:45:56;;;;;;;2.67;0.80;;;;;;;13.97;94.44;102477.28;6212748;23;20020;-83
2022/09/01 05:48:22;;;;;;;4.53;1.00;;;;;;;13.84;96.10;102468.91;6187633;23;19993;-83
2022/09/01 05:50:48;;;;;;;3.17;1.00;;;;;;;13.70;97.06;102442.63;6211872;23;20054;-83
2022/09/01 05:53:17;;;;;;;1.13;0.90;;;;;;;13.86;98.08;102480.41;6210953;23;20077;-83
2022/09/01 05:55:45;;;;;;;1.40;1.08;;;;;;;13.22;100.00;102409.44;6211640;23;19996;-84
2022/09/01 05:58:13;;;;;;;1.85;0.93;;;;;;;13.71;100.00;102469.53;6210872;23;20017;-82
2022/09/01 06:00:47;;;;;;;1.65;0.98;;;;;;;13.80;100.00;102473.00;6208937;23;20017;-81
2022/09/01 06:03:13;;;;;;;2.08;1.08;;;;;;;13.69;100.00;102455.31;6184610;23;19995;-82
2022/09/01 06:05:39;;;;;;;2.35;0.90;;;;;;;13.92;100.00;102476.97;6211267;23;19997;-83
2022/09/01 06:08:06;;;;;;;1.52;0.90;;;;;;;14.01;100.00;102480.47;6208942;23;20016;-83
2022/09/01 06:10:35;;;;;;;1.13;1.02;;;;;;;13.90;100.00;102446.53;6183389;23;20013;-82
2022/09/01 06:13:01;;;;;;;2.55;0.90;;;;;;;14.01;100.00;102481.31;6206224;23;20009;-82
2022/09/01 06:15:31;;;;;;;1.05;0.95;;;;;;;14.03;100.00;102486.53;6210661;23;20000;-83
2022/09/01 06:17:57;;;;;;;2.17;0.80;;;;;;;14.12;100.00;102481.91;6161319;23;20419;-81
2022/09/01 06:20:24;;;;;;;0.98;0.80;;;;;;;14.09;100.00;102488.50;6210529;23;20040;-83
2022/09/01 06:22:51;;;;;;;3.17;1.10;;;;;;;14.03;100.00;102494.66;6211237;23;20057;-83
2022/09/01 06:25:17;;;;;;;2.15;0.90;;;;;;;14.01;100.00;102475.91;6206470;23;20013;-82
2022/09/01 06:27:43;;;;;;;1.90;0.80;;;;;;;14.13;100.00;102479.00;6207969;23;20001;-82
2022/09/01 06:30:16;;;;;;;2.45;0.90;;;;;;;14.24;100.00;102497.53;6201628;23;20012;-81
2022/09/01 06:32:45;;;;;;;1.75;0.80;;;;;;;14.44;99.67;102497.03;6201811;23;20071;-81
2022/09/01 06:35:14;;;;;;;2.55;0.93;;;;;;;14.29;99.42;102500.53;6202255;23;20061;-81
2022/09/01 06:37:42;;;;;;;2.75;1.13;;;;;;;14.28;98.54;102451.97;6204759;23;20067;-81
2022/09/01 06:40:15;;;;;;;3.03;0.93;;;;;;;14.51;97.87;102482.59;6201763;23;20005;-81
2022/09/01 06:42:46;;;;;;;1.58;0.80;;;;;;;14.41;97.06;102471.16;6205175;23;19997;-81
2022/09/01 06:45:12;;;;;;;3.33;1.20;;;;;;;14.46;96.80;102462.47;6205483;23;20017;-82
2022/09/01 06:47:38;;;;;;;0.77;0.70;;;;;;;14.32;96.49;102458.72;6182836;23;20032;-82
2022/09/01 06:50:07;;;;;;;1.30;0.80;;;;;;;14.37;96.65;102463.56;6208830;23;20068;-83
2022/09/01 06:52:33;;;;;;;1.60;0.90;;;;;;;14.37;96.42;102441.91;6205793;23;20017;-82
2022/09/01 06:54:58;;;;;;;1.35;0.85;;;;;;;14.71;95.18;102444.97;6210510;23;20021;-81
2022/09/01 06:57:26;;;;;;;3.08;0.80;;;;;;;14.93;94.63;102492.00;6204696;23;20012;-82
2022/09/01 06:59:52;;;;;;;2.45;0.90;;;;;;;14.89;93.75;102468.13;6203676;23;20048;-82
2022/09/01 07:02:18;;;;;;;2.80;0.90;;;;;;;15.05;93.40;102478.78;6205295;23;20020;-82
2022/09/01 07:04:44;;;;;;;1.90;0.88;;;;;;;14.97;93.61;102478.91;6198364;23;20009;-80
2022/09/01 07:07:11;;;;;;;2.67;0.80;;;;;;;15.14;92.83;102484.97;6202124;23;20013;-81
2022/09/01 07:09:40;;;;;;;1.90;0.80;;;;;;;14.88;92.11;102412.25;6199011;23;20005;-80
2022/09/01 07:12:06;;;;;;;1.65;0.63;;;;;;;15.42;91.72;102477.78;6206215;23;20083;-81
2022/09/01 07:14:31;;;;;;;3.28;0.80;;;;;;;15.32;92.12;102485.41;6206154;23;20005;-82
2022/09/01 07:16:57;;;;;;;1.08;0.63;;;;;;;15.06;90.87;102480.47;6176776;23;20009;-80
2022/09/01 07:19:24;;;;;;;1.85;0.85;;;;;;;15.24;90.55;102490.94;6199945;23;20444;-80
2022/09/01 07:21:51;;;;;;;1.50;0.80;;;;;;;15.37;89.95;102485.69;6194414;23;20017;-81
2022/09/01 07:24:17;;;;;;;2.67;0.70;;;;;;;15.45;88.53;102499.13;6190620;23;20087;-80
2022/09/01 07:26:48;;;;;;;0.88;0.60;;;;;;;15.54;88.22;102494.44;6199343;23;20025;-80
2022/09/01 07:29:15;;;;;;;1.08;0.70;;;;;;;15.65;87.04;102493.09;6184578;23;20031;-81
2022/09/01 07:31:42;;;;;;;0.90;0.60;;;;;;;15.79;85.39;102502.25;6203772;23;20075;-82
2022/09/01 07:34:11;;;;;;;1.23;0.70;;;;;;;15.54;84.43;102497.16;6200567;23;20013;-82
2022/09/01 07:36:41;;;;;;;0.80;0.52;;;;;;;15.64;82.78;102489.53;6210047;23;20020;-82
2022/09/01 07:39:08;;;;;;;1.45;0.75;;;;;;;15.88;82.47;102473.94;6211628;23;19985;-83
2022/09/01 07:44:11;;;;;;;3.63;0.77;;;;;;;14.72;80.04;102286.78;6239836;22;20091;-83
2022/09/01 07:49:12;;;;;;;1.42;0.70;;;;;;;16.04;79.04;102494.59;6195509;23;20028;-82
2022/09/01 07:51:38;;;;;;;1.30;0.88;;;;;;;15.82;79.20;102459.28;6208191;23;20108;-82
2022/09/01 07:54:04;;;;;;;1.55;0.90;;;;;;;14.79;78.44;102284.16;6211543;23;20013;-81
2022/09/01 07:56:29;;;;;;;1.13;0.60;;;;;;;15.49;78.03;102416.31;6203033;23;20012;-81
2022/09/01 07:58:58;;;;;;;2.65;0.60;;;;;;;16.12;77.02;102483.56;6202838;23;20044;-82
2022/09/01 08:01:26;;;;;;;1.73;0.70;;;;;;;16.24;76.52;102505.63;6211573;23;20005;-82
2022/09/01 08:06:28;;;;;;;1.00;0.70;;;;;;;15.28;75.50;102340.38;6186581;23;20016;-79
2022/09/01 08:08:56;;;;;;;1.60;0.73;;;;;;;15.04;74.07;102290.06;6206268;23;20035;-80
2022/09/01 08:11:27;;;;;;;1.75;0.60;;;;;;;15.57;74.23;102336.69;6182455;23;20016;-81
2022/09/01 08:13:54;;;;;;;1.83;0.60;;;;;;;16.06;74.11;102405.59;6177478;23;20005;-80
2022/09/01 08:16:21;;;;;;;0.60;0.60;;;;;;;16.51;73.50;102506.69;6196852;23;20035;-79
2022/09/01 08:18:47;;;;;;;0.88;0.60;;;;;;;15.74;72.92;102394.28;6173181;23;20027;-79
2022/09/01 08:21:13;;;;;;;3.22;0.55;;;;;;;16.49;73.89;102515.06;6201399;23;20005;-79
2022/09/01 08:23:39;;;;;;;1.08;0.50;;;;;;;16.41;73.44;102493.44;6151273;23;20016;-80
2022/09/01 08:26:11;;;;;;;0.82;0.60;;;;;;;16.64;72.11;102520.38;6203799;23;20009;-80
2022/09/01 08:28:36;;;;;;;0.80;0.50;;;;;;;16.60;72.74;102492.75;6180977;23;20075;-81
2022/09/01 08:31:10;;;;;;;1.05;0.70;;;;;;;16.61;72.40;102509.91;6161004;23;19997;-82
2022/09/01 08:33:40;;;;;;;3.67;0.50;;;;;;;16.64;72.78;102513.06;6183032;23;20074;-81
2022/09/01 08:36:11;;;;;;;0.52;0.43;;;;;;;16.73;72.96;102502.06;6179026;23;20025;-80
2022/09/01 08:38:38;;;;;;;0.70;0.50;;;;;;;16.85;72.40;102511.34;6176657;23;20035;-79
2022/09/01 08:41:15;;;;;;;0.63;0.40;;;;;;;16.61;70.84;102474.56;6173686;23;20019;-83
2022/09/01 08:43:59;;;;;;;0.68;0.40;;;;;;;16.82;70.95;102503.59;6197878;23;19997;-74
2022/09/01 08:46:36;;;;;;;1.95;0.50;;;;;;;16.88;70.56;102500.91;6185187;23;20012;-74
2022/09/01 08:49:24;;;;;;;2.20;0.60;;;;;;;16.84;68.79;102505.06;6186671;23;20362;-73
2022/09/01 08:52:27;;;;;;;2.90;0.50;;;;;;;17.05;69.07;102497.88;6186745;23;20104;-73
2022/09/01 08:55:15;;;;;;;1.23;0.47;;;;;;;17.05;70.90;102496.03;6186506;23;19997;-74
2022/09/01 08:57:44;;;;;;;1.15;0.60;;;;;;;17.13;70.05;102498.56;6186507;23;20017;-75
2022/09/01 09:00:12;;;;;;;1.00;0.60;;;;;;;17.17;69.26;102492.72;6186312;23;20613;-75
2022/09/01 09:02:57;;;;;;;1.13;0.57;;;;;;;17.36;69.64;102500.13;6185659;23;20080;-75
2022/09/01 09:05:42;;;;;;;2.47;0.60;;;;;;;17.34;70.31;102491.31;6160126;23;20008;-75
2022/09/01 09:08:36;;;;;;;0.80;0.50;;;;;;;17.41;69.82;102496.78;6185991;23;20027;-75
2022/09/01 09:11:01;;;;;;;0.90;0.50;;;;;;;17.43;68.99;102481.09;6186229;23;20013;-76
2022/09/01 09:13:33;;;;;;;0.80;0.50;;;;;;;17.24;66.92;102483.53;6160597;23;20009;-75
2022/09/01 09:16:20;;;;;;;0.93;0.60;;;;;;;17.04;68.08;102436.38;6186243;23;20044;-75
2022/09/01 09:19:24;;;;;;;4.15;0.60;;;;;;;17.03;64.81;102445.59;6182587;23;20005;-76
2022/09/01 09:21:52;;;;;;;1.67;0.57;;;;;;;17.35;65.93;102449.44;6100120;23;20000;-75
2022/09/01 09:24:45;;;;;;;0.68;0.50;;;;;;;17.56;65.51;102492.88;6184092;23;20001;-75
2022/09/01 09:27:35;;;;;;;1.25;0.70;;;;;;;17.65;63.81;102479.06;6160234;23;20294;-75
2022/09/01 09:30:07;;;;;;;0.50;0.47;;;;;;;17.57;61.92;102475.50;6157814;23;20005;-75
2022/09/01 09:32:51;;;;;;;1.70;0.82;;;;;;;16.72;60.71;102389.78;6185788;23;20028;-75
2022/09/01 09:35:16;;;;;;;1.35;0.52;;;;;;;17.54;61.55;102477.78;6185176;23;20028;-75
2022/09/01 09:37:42;;;;;;;1.23;0.60;;;;;;;17.68;60.51;102487.69;6186009;23;20024;-75
2022/09/01 09:40:14;;;;;;;0.70;0.50;;;;;;;17.59;58.85;102472.59;6133850;23;20064;-74
2022/09/01 09:43:02;;;;;;;1.25;0.57;;;;;;;17.59;56.55;102486.19;6159801;23;20308;-75
2022/09/01 09:45:34;;;;;;;2.03;0.60;;;;;;;17.58;57.23;102468.16;6159488;23;20028;-74
2022/09/01 09:48:24;;;;;;;1.17;0.68;;;;;;;17.66;57.33;102468.00;6158552;23;20033;-75
2022/09/01 09:50:50;;;;;;;0.47;0.43;;;;;;;17.86;57.40;102464.50;6183798;23;20001;-75
2022/09/01 09:53:26;;;;;;;0.70;0.43;;;;;;;17.99;57.16;102449.00;6183860;23;20100;-75
2022/09/01 09:56:00;;;;;;;1.63;0.45;;;;;;;18.20;56.45;102467.03;6157854;23;20009;-75
2022/09/01 09:58:40;;;;;;;0.85;0.50;;;;;;;18.15;56.04;102466.00;6183681;23;20072;-75
2022/09/01 10:01:28;;;;;;;1.00;0.60;;;;;;;18.20;57.12;102455.31;6182928;23;20005;-75
2022/09/01 10:03:56;;;;;;;1.35;0.52;;;;;;;18.33;56.44;102463.47;6183348;23;20086;-75
2022/09/01 10:06:27;;;;;;;1.55;0.50;;;;;;;18.33;56.27;102457.19;6157610;23;20009;-75
2022/09/01 10:08:53;;;;;;;0.73;0.60;;;;;;;18.18;56.50;102439.19;6172779;23;20091;-75
2022/09/01 10:11:38;;;;;;;0.65;0.55;;;;;;;18.29;56.33;102441.25;6157367;23;20008;-75
2022/09/01 10:14:08;;;;;;;0.73;0.60;;;;;;;18.44;56.13;102448.38;6178531;23;20059;-75
2022/09/01 10:16:38;;;;;;;1.25;0.70;;;;;;;18.41;56.58;102441.47;6134723;23;20385;-75
2022/09/01 10:19:10;;;;;;;0.82;0.70;;;;;;;18.16;55.78;102403.13;6185975;23;20044;-75
2022/09/01 10:21:43;;;;;;;1.55;0.60;;;;;;;18.45;56.23;102442.72;6158799;23;20477;-75
2022/09/01 10:24:32;;;;;;;0.87;0.60;;;;;;;18.51;55.90;102439.16;6160145;23;20001;-75
2022/09/01 10:27:20;;;;;;;1.08;0.50;;;;;;;18.50;55.22;102436.63;6157515;23;20070;-74
2022/09/01 10:29:53;;;;;;;0.82;0.73;;;;;;;18.54;56.23;102437.84;6184266;23;20033;-75
2022/09/01 10:32:24;;;;;;;1.02;0.70;;;;;;;18.64;55.94;102441.00;6184005;23;20366;-75
2022/09/01 10:34:50;;;;;;;0.85;0.70;;;;;;;18.59;55.97;102429.06;6157619;23;19997;-75
2022/09/01 10:37:16;;;;;;;1.30;0.70;;;;;;;18.52;55.93;102421.72;6157686;23;20059;-75
2022/09/01 10:40:09;;;;;;;0.90;0.60;;;;;;;18.62;55.64;102439.53;6184694;23;20005;-75
2022/09/01 10:42:35;;;;;;;1.50;0.60;;;;;;;18.75;55.21;102432.19;6160135;23;20285;-75
2022/09/01 10:45:02;;;;;;;2.13;0.77;;;;;;;18.60;56.05;102415.19;6185787;23;20012;-75
2022/09/01 10:47:33;;;;;;;1.80;0.80;;;;;;;18.87;57.46;102439.72;6160389;23;20408;-74
2022/09/01 10:50:02;;;;;;;0.80;0.60;;;;;;;18.73;58.80;102441.63;6159615;23;20095;-74
2022/09/01 10:52:53;;;;;;;0.80;0.60;;;;;;;18.62;59.96;102440.38;6160295;23;20005;-74
2022/09/01 10:55:33;;;;;;;0.75;0.57;;;;;;;18.71;59.41;102428.19;6185542;23;20029;-75
2022/09/01 10:58:13;;;;;;;0.77;0.60;;;;;;;18.78;58.74;102439.94;6159609;23;20015;-75
2022/09/01 11:00:41;;;;;;;2.65;0.70;;;;;;;18.79;58.82;102443.50;6186300;23;20039;-75
2022/09/01 11:03:10;;;;;;;0.70;0.52;;;;;;;18.86;58.04;102438.88;6159977;23;20013;-75
2022/09/01 11:05:58;;;;;;;1.20;0.63;;;;;;;18.83;58.74;102433.00;6185241;23;20004;-75
2022/09/01 11:08:46;;;;;;;1.30;0.70;;;;;;;18.78;59.41;102428.22;6168227;23;20009;-75
2022/09/01 11:11:30;;;;;;;0.88;0.70;;;;;;;18.77;58.68;102432.84;6185338;23;20009;-75
2022/09/01 11:14:00;;;;;;;0.80;0.70;;;;;;;18.65;59.53;102429.03;6183217;23;19997;-74
2022/09/01 11:16:38;;;;;;;0.77;0.70;;;;;;;18.51;60.73;102428.25;6185542;23;20017;-74
2022/09/01 11:19:31;;;;;;;1.95;0.90;;;;;;;18.53;61.20;102428.00;6185036;23;20015;-74
2022/09/01 11:22:12;;;;;;;1.05;0.80;;;;;;;18.52;60.82;102423.63;6185721;23;20016;-75
2022/09/01 11:24:41;;;;;;;1.05;0.68;;;;;;;18.58;61.07;102433.69;6184112;23;20043;-74
2022/09/01 11:27:12;;;;;;;1.52;0.60;;;;;;;18.49;61.99;102429.50;6184153;23;20067;-75
2022/09/01 11:30:00;;;;;;;3.00;0.77;;;;;;;18.56;62.37;102424.88;6185311;23;20354;-75
2022/09/01 11:32:35;;;;;;;3.55;0.55;;;;;;;18.32;60.68;102390.94;6184940;23;20005;-75
2022/09/01 11:35:13;;;;;;;1.25;0.68;;;;;;;18.37;62.81;102393.84;6184909;23;20084;-74
2022/09/01 11:37:38;;;;;;;0.93;0.70;;;;;;;18.45;61.15;102418.19;6184450;23;20483;-75
2022/09/01 11:40:07;;;;;;;0.90;0.70;;;;;;;18.65;61.32;102425.50;6185119;23;20012;-74
2022/09/01 11:42:40;;;;;;;2.67;0.90;;;;;;;18.64;60.42;102418.34;6183807;23;20013;-74
2022/09/01 11:45:15;;;;;;;0.80;0.65;;;;;;;18.55;60.31;102390.47;6185616;23;20412;-74
2022/09/01 11:47:44;;;;;;;1.05;0.60;;;;;;;18.68;60.73;102412.25;6184816;23;20404;-74
2022/09/01 11:50:31;;;;;;;0.90;0.75;;;;;;;18.61;61.04;102411.44;6183876;23;20008;-75
2022/09/01 11:53:13;;;;;;;1.75;0.70;;;;;;;18.74;60.51;102408.72;6185032;23;20004;-74